Picayune, MS

00:17 CDT le 21 octobre 2014 (GMT -0500)
Hide_A_Way Lake ~OWX | Change Station
CLOSE
Current Station
Stations météorologiques personnelles
Location: Carriere, MS
Altitude: 100 ft
Stations météo à proximité

Alt. 100 ft 30.58 °N, 89.65 °W | Updated 2 seconds ago

Ciel dégagé
Ciel dégagé
56.8 ° F
Paraît 56.8 ° F
N
0.0
Vent Variable Vent de ONO
Gusts 0.0 mph

Aujourd'hui
Haut(e) -- | Bas -- ° F
--% Risque de précip.
Hier
Haut(e) -- | Bas -- ° F
Precip. -- pouce
7:05 AM 6:20 PM
Lune descendante, 7% visible
Pression 30.02 pouce
Visibilité 10.0 Miles terrestres
Nuages Ciel dégagé
Point de rosée 53 ° F
Humidité 86%
Précipitations 0.00 pouce
Profondeur de la couche neigeuse Non disponible.
UV 0.0 sur 12
Pollen 3.50 sur 12
Ozone Bon
PM2.5 Moyen
Flu Activity No Activity
METAR KASD 210453Z AUTO 36003KT 10SM CLR 12/11 A3002 RMK AO2 SLP164 T01220106

More Conditions Fewer Conditions

Pression 30.02 pouce
Visibilité 10.0 Miles terrestres
Nuages Ciel dégagé
Point de rosée 53 ° F
Humidité 86%
Précipitations 0.00 pouce
Profondeur de la couche neigeuse Non disponible.
UV 0.0 sur 12
Pollen 3.50 sur 12
Ozone Bon
PM2.5 Moyen
Flu Activity No Activity
METAR KASD 210453Z AUTO 36003KT 10SM CLR 12/11 A3002 RMK AO2 SLP164 T01220106

More Conditions Fewer Conditions

10-Day Weather Forecast

Almanac

Astronomie

Oct. 21, 2014 Lever Coucher
Temps réel 07:05 CDT 18:20 CDT
Crépuscule civil 06:40 CDT 18:45 CDT
Crépuscule nautique 06:12 CDT 19:13 CDT
Crépuscule astronomique 05:44 CDT 19:41 CDT
Lune 04:58 CDT 17:07 CDT
Durée de lumière visible 12h 04m
Longueur du jour
11h 15m
Tomorrow will be 1m 44s shorter.
Lune descendante, 7% of the Moon is Illuminated
Aujourd'hui
Lune descendante
Oct 23
Nouveau
Oct 30
Premier quartier
Nov 6
Pleine lune
Nov 14
Dernier quartier

Extrêmes aujourd'hui

State Highs State Lows

Community

WunderPhotos

Upload Photos

1,763,612 Photos téléchargées !

Nearby

Qualité de l'air

  Qualité de l'air Indice de la qualité de l'air Polluant
Hier Bon
PM2.5
Hier Bon
OZONE
Actuel Moyen
PM2.5
Actuel Bon
OZONE
lundi Bon
OZONE
lundi Bon
PM2.5
mardi Bon
OZONE
mardi Bon
PM2.5
mercredi Bon
OZONE
mercredi Bon
PM2.5
jeudi Bon
OZONE
jeudi Bon
PM2.5

Épaisseur de neige

Station Depth Altitude
Pas de nouvelles chutes de neige

Activité sismique

Ville Distance Mag. Time & Date
No recent earthquake activity has been reported nearby.
Minimum magnitude displayed is 2.5.

Températures des eaux côtières

Lieu Température
Aucun rapport de station

Stations météo à proximité